Aérodrome :
LOGIN :

S'inscrire | Disclaimer

   EN    FR    IT 

 










Légende :    VFR   VFR Marginal   IFR   IFR Intensif   IFR Très Intensif
Visi : 
Plafond : 
>= 8 km
>= 3000ft
5 à 8 km
1000 à 3000 ft
1500m à 5 km
500 à 1000 ft
800 à 1500m
200 à 500 ft
< 800m
< 200 ft
Symboles :   Orages  Brouillard  Fortes neiges  Fortes précipitations  Vent > 20 kt
SIGMETs :   Divers  Orages  Givrage  Turbulence  Onde Orograph.  Cendres Volcan.






- Altitude de l'aérodrome : 228 ft
- Code IATA : OPO


LPPR - Porto Fr. Sa Carneiro

DERNIER METAR :
  • 250230Z 19005KT 9999 BKN004 16/16 Q1011

METARs EXPIRÉS :
  • 250200Z 19004KT 170V240 9999 BKN003 16/16 Q1011
  • 250130Z 20005KT 8000 BKN003 16/16 Q1011
  • 250100Z 20005KT 160V220 8000 BKN003 16/16 Q1011
  • 250000Z 18005KT 4000 BR BKN002 16/16 Q1011
  • 242330Z 19004KT 150V210 3000 BR BKN002 16/16 Q1012
  • 242300Z 22004KT 180V260 3000 BR BKN003 16/16 Q1012
  • 242230Z 23004KT 200V260 1500 BR BKN002 16/16 Q1012
  • 242130Z 24003KT 190V280 0600 R17/0800N FG VV001 16/16 Q1012

TAF TAF LPPR
Valide du 25 à 00h jusqu'au 26 à 00h UTC


242300Z 2500/2524 VRB02KT 5000 BR SCT004 BKN008
TEMPO 2500/2508 1200 DZ PRFG SCT000 OVC002
PROB30
TEMPO 2500/2508 0200 +DZ FG VV001
BECMG 2510/2512 26007KT 9999 NSW SCT008 BKN025
PROB30
TEMPO 2512/2520 4000 BR BKN006
BECMG 2514/2516 23007KT
BECMG 2519/2521 VRB02KT



MET'MAP, la Météo Aéronautique d'un coup d'oeil ! - Copyright ORBIFLY Décembre 2007 - Disclaimer

ORBIFLY MET'MAP TEAM :

Programmation & Développement : Alexandra Zaïnal
Sur une idée originale de : Baudouin d'Aumeries
Soutien technique & logistique : Manuel Goepfert
Assistance : Marc-Olivier Méhu




SOURCES & CREDITS :

   NOAA